createdAt,value
2022-10-11T00:01:10.618Z,4.72
2022-10-11T00:03:37.324Z,5.32
2022-10-11T00:06:04.196Z,2.90
2022-10-11T00:08:31.549Z,8.57
2022-10-11T00:11:03.975Z,5.63
2022-10-11T00:13:30.643Z,1.80
2022-10-11T00:15:57.630Z,1.95
2022-10-11T00:18:24.668Z,3.63
2022-10-11T00:20:51.209Z,3.00
2022-10-11T00:23:17.688Z,4.60
2022-10-11T00:25:44.270Z,2.97
2022-10-11T00:28:10.778Z,2.50
2022-10-11T00:30:37.596Z,7.07
2022-10-11T00:33:04.034Z,1.15
2022-10-11T00:35:30.518Z,3.03
2022-10-11T00:37:57.117Z,3.25
2022-10-11T00:40:23.944Z,2.80
2022-10-11T00:42:50.463Z,6.40
2022-10-11T00:45:32.020Z,2.30
2022-10-11T00:48:09.762Z,4.85
2022-10-11T00:50:36.778Z,6.38
2022-10-11T00:53:08.601Z,4.95
2022-10-11T00:55:40.199Z,1.45
2022-10-11T00:58:07.448Z,2.95
2022-10-11T01:00:34.098Z,1.90
2022-10-11T01:03:01.121Z,4.97
2022-10-11T01:05:29.919Z,3.20
2022-10-11T01:07:59.176Z,5.05
2022-10-11T01:10:27.460Z,4.13
2022-10-11T01:12:59.859Z,3.20
2022-10-11T01:15:42.402Z,4.15
2022-10-11T01:18:21.771Z,4.15
2022-10-11T01:20:48.209Z,2.38
2022-10-11T01:23:33.751Z,4.38
2022-10-11T01:26:17.973Z,3.20
2022-10-11T01:29:03.055Z,1.30
2022-10-11T01:31:58.532Z,13.90
2022-10-11T01:34:31.042Z,5.45
2022-10-11T01:37:09.404Z,4.80
2022-10-11T01:39:48.540Z,3.67
2022-10-11T01:42:17.941Z,3.67
2022-10-11T01:44:47.464Z,3.25
2022-10-11T01:47:14.071Z,6.18
2022-10-11T01:49:40.582Z,4.13
2022-10-11T01:52:07.855Z,5.10
2022-10-11T01:55:09.981Z,2.90
2022-10-11T01:57:55.665Z,6.28
2022-10-11T02:00:29.887Z,4.72
2022-10-11T02:03:17.628Z,3.63
2022-10-11T02:05:55.935Z,2.83
2022-10-11T02:08:38.439Z,3.13
2022-10-11T02:11:09.281Z,3.08
2022-10-11T02:13:35.794Z,3.60
2022-10-11T02:16:09.407Z,3.85
2022-10-11T02:18:41.192Z,4.05
2022-10-11T02:21:12.275Z,3.63
2022-10-11T02:23:53.526Z,1.92
2022-10-11T02:26:23.381Z,2.15
2022-10-11T02:28:53.039Z,3.42
2022-10-11T02:31:21.013Z,2.58
2022-10-11T02:34:02.032Z,4.43
2022-10-11T02:36:45.648Z,3.58
2022-10-11T02:39:35.403Z,1.83
2022-10-11T02:42:06.578Z,6.00
2022-10-11T02:44:38.186Z,6.35
2022-10-11T02:47:05.748Z,3.50
2022-10-11T02:49:32.631Z,3.67
2022-10-11T02:51:59.447Z,2.67
2022-10-11T02:54:26.426Z,4.28
2022-10-11T02:56:53.120Z,2.30
2022-10-11T02:59:19.648Z,3.55
2022-10-11T03:01:46.240Z,3.67
2022-10-11T03:04:12.939Z,2.10
2022-10-11T03:06:39.675Z,1.42
2022-10-11T03:09:06.510Z,3.67
2022-10-11T03:11:33.001Z,5.40
2022-10-11T03:13:59.455Z,5.85
2022-10-11T03:16:26.143Z,5.82
2022-10-11T03:18:52.590Z,7.28
2022-10-11T03:21:19.071Z,6.07
2022-10-11T03:23:45.570Z,5.78
2022-10-11T03:26:12.109Z,3.00
2022-10-11T03:28:38.614Z,3.40
2022-10-11T03:31:05.262Z,4.10
2022-10-11T03:33:31.780Z,4.50
2022-10-11T03:35:58.258Z,3.80
2022-10-11T03:38:24.902Z,5.10
2022-10-11T03:40:51.411Z,4.78
2022-10-11T03:43:17.986Z,4.47
2022-10-11T03:45:44.501Z,2.15
2022-10-11T03:48:11.065Z,2.72
2022-10-11T03:50:38.160Z,2.97
2022-10-11T03:53:06.651Z,4.53
2022-10-11T03:55:33.252Z,5.82
2022-10-11T03:58:00.069Z,5.30
2022-10-11T04:00:26.601Z,4.43
2022-10-11T04:02:53.150Z,3.75
2022-10-11T04:05:19.631Z,6.82
2022-10-11T04:07:46.147Z,5.38
2022-10-11T04:10:12.672Z,2.50
2022-10-11T04:12:39.136Z,3.33
2022-10-11T04:15:06.800Z,8.55
2022-10-11T04:17:33.706Z,4.32
2022-10-11T04:20:00.240Z,3.55
2022-10-11T04:22:26.812Z,3.35
2022-10-11T04:24:53.276Z,2.35
2022-10-11T04:27:19.870Z,3.50
2022-10-11T04:29:46.419Z,4.65
2022-10-11T04:32:12.925Z,4.22
2022-10-11T04:34:39.445Z,7.63
2022-10-11T04:37:06.037Z,3.90
2022-10-11T04:39:32.497Z,4.82
2022-10-11T04:41:58.971Z,5.13
2022-10-11T04:44:25.448Z,1.52
2022-10-11T04:46:51.884Z,3.22
2022-10-11T04:49:18.490Z,2.72
2022-10-11T04:51:45.025Z,6.22
2022-10-11T04:54:11.597Z,4.93
2022-10-11T04:56:38.162Z,3.85
2022-10-11T04:59:04.650Z,2.80
2022-10-11T05:01:31.255Z,3.42
2022-10-11T05:03:57.751Z,5.13
2022-10-11T05:06:24.568Z,6.28
2022-10-11T05:08:51.137Z,12.18
2022-10-11T05:11:17.872Z,4.18
2022-10-11T05:13:45.798Z,5.93
2022-10-11T05:16:13.742Z,3.83
2022-10-11T05:21:16.332Z,3.95
2022-10-11T05:23:43.187Z,4.97
2022-10-11T05:26:09.942Z,8.27
2022-10-11T05:28:36.685Z,7.32
2022-10-11T05:31:04.037Z,1.98
2022-10-11T05:33:30.912Z,2.47
2022-10-11T05:35:57.628Z,5.38
2022-10-11T05:38:24.360Z,4.40
2022-10-11T05:40:51.131Z,3.58
2022-10-11T05:43:17.784Z,2.28
2022-10-11T05:45:44.932Z,3.58
2022-10-11T05:48:12.759Z,3.22
2022-10-11T05:50:39.526Z,1.95
2022-10-11T05:53:06.591Z,3.13
2022-10-11T05:55:41.047Z,3.95
2022-10-11T05:58:10.212Z,3.22
2022-10-11T06:00:37.352Z,4.55
2022-10-11T06:03:05.429Z,2.65
2022-10-11T06:05:32.217Z,6.35
2022-10-11T06:07:58.691Z,3.90
2022-10-11T06:10:25.852Z,2.63
2022-10-11T06:12:52.420Z,3.13
2022-10-11T06:15:19.099Z,2.67
2022-10-11T06:17:47.296Z,3.05
2022-10-11T06:22:40.724Z,5.93
2022-10-11T06:25:07.639Z,2.75
2022-10-11T06:27:34.242Z,5.07
2022-10-11T06:30:00.868Z,6.32
2022-10-11T06:32:27.579Z,1.83
2022-10-11T06:34:54.095Z,5.22
2022-10-11T06:37:20.718Z,1.10
2022-10-11T06:39:47.245Z,2.65
2022-10-11T06:42:13.783Z,4.15
2022-10-11T06:44:40.253Z,3.50
2022-10-11T06:47:07.840Z,2.15
2022-10-11T06:49:34.621Z,3.05
2022-10-11T06:52:01.342Z,4.95
2022-10-11T06:54:27.895Z,4.28
2022-10-11T06:56:54.398Z,2.80
2022-10-11T06:59:21.017Z,3.45
2022-10-11T07:01:48.085Z,6.70
2022-10-11T07:04:14.596Z,3.53
2022-10-11T07:06:41.690Z,3.83
2022-10-11T07:09:08.355Z,5.38
2022-10-11T07:11:35.586Z,4.85
2022-10-11T07:14:04.800Z,3.90
2022-10-11T07:16:31.311Z,3.38
2022-10-11T07:19:00.963Z,3.97
2022-10-11T07:21:28.952Z,3.20
2022-10-11T07:23:55.423Z,4.22
2022-10-11T07:26:22.051Z,3.97
2022-10-11T07:28:48.667Z,6.55
2022-10-11T07:31:18.797Z,4.32
2022-10-11T07:33:46.064Z,3.08
2022-10-11T07:36:13.229Z,2.70
2022-10-11T07:38:41.097Z,3.70
2022-10-11T07:41:08.506Z,4.65
2022-10-11T07:43:36.314Z,4.28
2022-10-11T07:46:03.948Z,3.08
2022-10-11T07:48:31.983Z,4.60
2022-10-11T07:51:17.576Z,4.60
2022-10-11T07:53:48.954Z,2.90
2022-10-11T07:56:18.653Z,4.85
2022-10-11T07:58:49.144Z,3.80
2022-10-11T08:01:15.712Z,3.05
2022-10-11T08:03:42.217Z,4.20
2022-10-11T08:06:10.294Z,3.83
2022-10-11T08:08:37.618Z,2.60
2022-10-11T08:11:05.651Z,3.05
2022-10-11T08:13:32.568Z,8.18
2022-10-11T08:15:59.309Z,3.42
2022-10-11T08:18:26.346Z,6.13
2022-10-11T08:20:53.231Z,3.28
2022-10-11T08:23:19.994Z,4.30
2022-10-11T08:25:47.888Z,5.85
2022-10-11T08:28:14.936Z,3.88
2022-10-11T08:30:50.653Z,4.78
2022-10-11T08:33:22.324Z,5.72
2022-10-11T08:35:49.724Z,7.65
2022-10-11T08:38:17.207Z,3.75
2022-10-11T08:40:53.267Z,3.38
2022-10-11T08:43:45.870Z,2.97
2022-10-11T08:46:14.992Z,3.65
2022-10-11T08:48:45.940Z,6.20
2022-10-11T08:51:22.965Z,6.00
2022-10-11T08:53:57.057Z,3.72
2022-10-11T08:56:25.625Z,4.13
2022-10-11T08:59:12.094Z,5.47
2022-10-11T09:01:44.602Z,3.60
2022-10-11T09:04:14.560Z,6.75
2022-10-11T09:06:53.845Z,8.65
2022-10-11T09:09:36.780Z,8.02
2022-10-11T09:12:17.342Z,3.75
2022-10-11T09:15:11.818Z,6.38
2022-10-11T09:18:00.162Z,3.47
2022-10-11T09:20:35.759Z,4.90
2022-10-11T09:23:35.169Z,4.47
2022-10-11T09:26:10.840Z,5.65
2022-10-11T09:29:01.372Z,4.75
2022-10-11T09:31:28.671Z,4.25
2022-10-11T09:33:55.785Z,6.78
2022-10-11T09:36:37.594Z,6.35
2022-10-11T09:39:18.374Z,3.95
2022-10-11T09:42:02.203Z,6.15
2022-10-11T09:44:50.167Z,5.18
2022-10-11T09:47:20.158Z,6.88
2022-10-11T09:49:52.883Z,10.15
2022-10-11T09:52:22.718Z,6.95
2022-10-11T09:54:55.894Z,3.22
2022-10-11T09:57:28.162Z,8.13
2022-10-11T10:00:06.956Z,4.55
2022-10-11T10:02:44.964Z,4.75
2022-10-11T10:05:11.382Z,3.60
2022-10-11T10:07:40.041Z,4.63
2022-10-11T10:10:27.094Z,5.35
2022-10-11T10:12:59.342Z,4.15
2022-10-11T10:15:34.801Z,5.45
2022-10-11T10:18:02.914Z,2.88
2022-10-11T10:20:35.147Z,10.95
2022-10-11T10:23:23.883Z,5.80
2022-10-11T10:25:50.572Z,6.32
2022-10-11T10:28:25.877Z,6.65
2022-10-11T10:30:53.740Z,7.05
2022-10-11T10:33:22.286Z,5.30
2022-10-11T10:35:53.741Z,3.55
2022-10-11T10:38:34.844Z,1.30
2022-10-11T10:41:04.453Z,4.88
2022-10-11T10:43:36.095Z,3.17
2022-10-11T10:46:37.059Z,6.32
2022-10-11T10:49:48.502Z,7.82
2022-10-11T10:52:17.852Z,9.70
2022-10-11T10:54:52.065Z,5.45
2022-10-11T10:57:32.051Z,2.78
2022-10-11T11:00:15.719Z,12.40
2022-10-11T11:03:03.767Z,5.15
2022-10-11T11:05:55.383Z,3.38
2022-10-11T11:08:27.982Z,4.95
2022-10-11T11:11:18.860Z,5.20
2022-10-11T11:13:58.423Z,10.98
2022-10-11T11:16:49.433Z,11.38
2022-10-11T11:19:18.604Z,5.45
2022-10-11T11:22:04.390Z,7.28
2022-10-11T11:24:50.736Z,12.43
2022-10-11T11:27:48.025Z,6.47
2022-10-11T11:30:22.482Z,5.53
2022-10-11T11:33:03.635Z,6.05
2022-10-11T11:35:39.175Z,5.75
2022-10-11T11:38:46.438Z,8.63
2022-10-11T11:41:55.250Z,8.35
2022-10-11T11:44:28.175Z,8.15
2022-10-11T11:47:09.307Z,3.25
2022-10-11T11:49:38.504Z,13.65
2022-10-11T11:52:15.646Z,11.63
2022-10-11T11:55:03.736Z,4.73
2022-10-11T11:57:57.917Z,8.40
2022-10-11T12:00:30.778Z,5.57
2022-10-11T12:03:11.765Z,9.65
2022-10-11T12:05:38.504Z,6.95
2022-10-11T12:08:27.932Z,8.85
2022-10-11T12:10:59.617Z,5.82
2022-10-11T12:13:32.372Z,15.20
2022-10-11T12:16:08.101Z,10.80
2022-10-11T12:18:39.336Z,15.55
2022-10-11T12:21:20.860Z,9.57
2022-10-11T12:23:49.833Z,8.40
2022-10-11T12:26:28.611Z,4.80
2022-10-11T12:29:02.346Z,7.55
2022-10-11T12:31:32.070Z,7.72
2022-10-11T12:34:00.978Z,10.05
2022-10-11T12:36:47.560Z,6.32
2022-10-11T12:39:19.966Z,7.05
2022-10-11T12:41:49.486Z,8.07
2022-10-11T12:44:19.166Z,7.25
2022-10-11T12:46:51.721Z,6.63
2022-10-11T12:49:30.286Z,7.50
2022-10-11T12:52:18.321Z,11.70
2022-10-11T12:55:02.775Z,14.27
2022-10-11T12:58:04.309Z,10.63
2022-10-11T13:00:34.121Z,7.80
2022-10-11T13:03:00.527Z,9.88
2022-10-11T13:05:44.943Z,9.88
2022-10-11T13:08:18.761Z,10.00
2022-10-11T13:10:47.538Z,15.52
2022-10-11T13:13:31.971Z,17.23
2022-10-11T13:16:05.198Z,9.18
2022-10-11T13:18:31.925Z,8.98
2022-10-11T13:20:58.446Z,8.48
2022-10-11T13:23:35.122Z,8.50
2022-10-11T13:26:02.475Z,5.90
2022-10-11T13:28:34.146Z,7.75
2022-10-11T13:31:04.175Z,8.88
2022-10-11T13:36:01.709Z,8.15
2022-10-11T13:38:34.864Z,15.25
2022-10-11T13:41:05.087Z,6.03
2022-10-11T13:43:32.312Z,11.70
2022-10-11T13:46:00.589Z,9.60
2022-10-11T13:48:31.741Z,7.25
2022-10-11T13:51:34.921Z,11.48
2022-10-11T13:54:13.613Z,14.30
2022-10-11T13:56:49.017Z,9.68
2022-10-11T13:59:21.622Z,9.00
2022-10-11T14:01:49.846Z,8.40
2022-10-11T14:04:16.799Z,9.02
2022-10-11T14:06:43.210Z,8.27
2022-10-11T14:09:26.385Z,8.40
2022-10-11T14:11:53.044Z,9.70
2022-10-11T14:14:30.058Z,12.32
2022-10-11T14:17:04.369Z,10.40
2022-10-11T14:19:31.127Z,15.07
2022-10-11T14:21:58.004Z,9.05
2022-10-11T14:24:24.499Z,10.75
2022-10-11T14:26:53.384Z,9.93
2022-10-11T14:29:34.538Z,14.05
2022-10-11T14:32:18.901Z,13.93
2022-10-11T14:34:47.637Z,18.67
2022-10-11T14:37:18.325Z,14.48
2022-10-11T14:39:45.480Z,17.58
2022-10-11T14:42:11.924Z,9.13
2022-10-11T14:44:38.682Z,11.25
2022-10-11T14:47:06.095Z,10.27
2022-10-11T14:49:36.337Z,13.70
2022-10-11T14:52:05.114Z,8.82
2022-10-11T14:54:33.499Z,15.52
2022-10-11T14:57:03.579Z,15.73
2022-10-11T15:02:01.733Z,13.13
2022-10-11T15:04:28.585Z,15.57
2022-10-11T15:06:56.397Z,11.77
2022-10-11T15:09:27.917Z,13.90
2022-10-11T15:11:55.030Z,8.65
2022-10-11T15:14:23.122Z,9.20
2022-10-11T15:19:18.915Z,10.18
2022-10-11T15:21:45.646Z,6.55
2022-10-11T15:24:12.947Z,13.38
2022-10-11T15:26:39.964Z,10.73
2022-10-11T15:29:09.892Z,10.60
2022-10-11T15:31:36.391Z,13.27
2022-10-11T15:34:03.080Z,13.38
2022-10-11T15:36:29.757Z,16.25
2022-10-11T15:38:56.497Z,12.85
2022-10-11T15:41:23.104Z,10.00
2022-10-11T15:43:49.685Z,15.18
2022-10-11T15:46:20.071Z,10.00
2022-10-11T15:48:47.485Z,13.32
2022-10-11T15:51:15.356Z,10.95
2022-10-11T15:53:41.965Z,15.07
2022-10-11T15:56:12.426Z,28.13
2022-10-11T15:58:40.584Z,17.88
2022-10-11T16:03:36.137Z,18.20
2022-10-11T16:06:05.524Z,12.98
2022-10-11T16:08:33.108Z,12.25
2022-10-11T16:11:00.534Z,11.30
2022-10-11T16:13:27.196Z,9.52
2022-10-11T16:15:54.078Z,13.07
2022-10-11T16:18:21.504Z,9.63
2022-10-11T16:20:50.027Z,11.13
2022-10-11T16:23:16.592Z,9.82
2022-10-11T16:25:43.353Z,10.32
2022-10-11T16:28:10.454Z,10.82
2022-10-11T16:30:42.317Z,7.50
2022-10-11T16:33:09.230Z,7.63
2022-10-11T16:35:35.946Z,8.40
2022-10-11T16:38:02.616Z,8.73
2022-10-11T16:40:29.080Z,9.43
2022-10-11T16:42:56.085Z,8.77
2022-10-11T16:45:23.012Z,7.72
2022-10-11T16:47:50.155Z,14.40
2022-10-11T16:50:16.712Z,10.18
2022-10-11T16:52:43.329Z,8.98
2022-10-11T16:55:10.267Z,9.02
2022-10-11T16:57:37.000Z,5.88
2022-10-11T17:00:06.683Z,7.00
2022-10-11T17:02:33.361Z,5.70
2022-10-11T17:05:00.174Z,6.85
2022-10-11T17:07:27.592Z,11.88
2022-10-11T17:09:54.075Z,15.68
2022-10-11T17:12:23.680Z,11.43
2022-10-11T17:14:51.157Z,10.13
2022-10-11T17:17:18.790Z,10.13
2022-10-11T17:19:45.787Z,9.65
2022-10-11T17:22:14.908Z,8.38
2022-10-11T17:24:41.443Z,12.60
2022-10-11T17:27:08.539Z,8.55
2022-10-11T17:29:35.461Z,10.55
2022-10-11T17:32:02.367Z,7.97
2022-10-11T17:34:28.979Z,9.90
2022-10-11T17:36:55.448Z,7.93
2022-10-11T17:39:23.629Z,12.52
2022-10-11T17:44:17.273Z,7.47
2022-10-11T17:46:43.871Z,12.90
2022-10-11T17:49:11.598Z,8.23
2022-10-11T17:51:39.159Z,12.60
2022-10-11T17:54:05.685Z,5.40
2022-10-11T17:56:37.747Z,9.13
2022-10-11T17:59:04.732Z,8.10
2022-10-11T18:01:31.411Z,8.13
2022-10-11T18:04:00.769Z,15.63
2022-10-11T18:06:29.946Z,18.85
2022-10-11T18:08:59.204Z,21.08
2022-10-11T18:11:25.766Z,18.17
2022-10-11T18:13:52.879Z,12.32
2022-10-11T18:16:23.216Z,9.82
2022-10-11T18:18:50.268Z,10.40
2022-10-11T18:21:16.814Z,7.72
2022-10-11T18:23:43.276Z,8.20
2022-10-11T18:26:13.709Z,8.80
2022-10-11T18:28:41.065Z,9.18
2022-10-11T18:31:14.250Z,10.20
2022-10-11T18:33:42.078Z,8.63
2022-10-11T18:36:10.140Z,9.77
2022-10-11T18:41:08.028Z,8.52
2022-10-11T18:43:35.100Z,5.90
2022-10-11T18:46:09.845Z,5.88
2022-10-11T18:48:36.415Z,6.55
2022-10-11T18:51:07.859Z,5.30
2022-10-11T18:53:35.577Z,6.78
2022-10-11T18:56:04.568Z,7.15
2022-10-11T18:58:32.591Z,9.88
2022-10-11T19:01:11.297Z,10.52
2022-10-11T19:03:38.621Z,7.15
2022-10-11T19:06:07.964Z,16.67
2022-10-11T19:08:34.908Z,8.65
2022-10-11T19:11:08.936Z,10.77
2022-10-11T19:13:35.872Z,6.13
2022-10-11T19:16:05.421Z,7.13
2022-10-11T19:18:32.719Z,6.35
2022-10-11T19:21:08.104Z,8.35
2022-10-11T19:23:36.885Z,6.90
2022-10-11T19:26:03.785Z,6.75
2022-10-11T19:28:30.650Z,7.18
2022-10-11T19:31:05.721Z,6.78
2022-10-11T19:33:33.399Z,9.50
2022-10-11T19:36:01.699Z,5.75
2022-10-11T19:38:29.129Z,7.47
2022-10-11T19:40:55.828Z,8.32
2022-10-11T19:43:23.353Z,10.07
2022-10-11T19:45:49.799Z,6.07
2022-10-11T19:48:16.402Z,7.35
2022-10-11T19:50:42.902Z,6.45
2022-10-11T19:53:09.490Z,6.10
2022-10-11T19:55:36.087Z,7.40
2022-10-11T19:58:08.069Z,11.20
2022-10-11T20:00:34.862Z,12.25
2022-10-11T20:03:01.433Z,8.52
2022-10-11T20:05:28.028Z,9.23
2022-10-11T20:07:54.504Z,8.43
2022-10-11T20:10:21.011Z,8.25
2022-10-11T20:12:47.538Z,7.93
2022-10-11T20:15:14.154Z,11.20
2022-10-11T20:17:40.659Z,16.02
2022-10-11T20:20:08.061Z,14.05
2022-10-11T20:22:35.159Z,7.57
2022-10-11T20:25:20.662Z,13.73
2022-10-11T20:28:05.930Z,11.63
2022-10-11T20:30:51.309Z,8.57
2022-10-11T20:33:36.167Z,8.82
2022-10-11T20:36:23.008Z,9.43
2022-10-11T20:39:08.266Z,7.45
2022-10-11T20:41:53.506Z,10.90
2022-10-11T20:44:38.596Z,15.10
2022-10-11T20:47:23.735Z,12.18
2022-10-11T20:50:09.305Z,13.18
2022-10-11T20:52:54.376Z,8.38
2022-10-11T20:55:39.443Z,8.15
2022-10-11T20:58:24.263Z,10.15
2022-10-11T21:01:14.369Z,11.20
2022-10-11T21:04:01.319Z,14.30
2022-10-11T21:06:48.126Z,9.63
2022-10-11T21:09:33.543Z,11.50
2022-10-11T21:12:19.121Z,11.85
2022-10-11T21:15:04.595Z,9.13
2022-10-11T21:17:51.055Z,9.38
2022-10-11T21:20:42.690Z,11.73
2022-10-11T21:23:27.795Z,7.25
2022-10-11T21:26:14.488Z,7.35
2022-10-11T21:28:59.821Z,9.95
2022-10-11T21:31:44.904Z,9.65
2022-10-11T21:34:29.847Z,21.58
2022-10-11T21:37:15.196Z,7.43
2022-10-11T21:40:00.127Z,6.35
2022-10-11T21:42:45.488Z,9.35
2022-10-11T21:45:30.834Z,10.02
2022-10-11T21:48:15.808Z,8.43
2022-10-11T21:51:00.962Z,7.10
2022-10-11T21:53:46.111Z,14.65
2022-10-11T21:56:31.293Z,7.57
2022-10-11T21:59:16.258Z,7.72
2022-10-11T22:02:02.245Z,6.28
2022-10-11T22:04:47.545Z,7.40
2022-10-11T22:07:32.880Z,8.65
2022-10-11T22:10:18.326Z,11.27
2022-10-11T22:13:04.144Z,8.32
2022-10-11T22:15:49.521Z,6.43
2022-10-11T22:18:35.060Z,9.80
2022-10-11T22:21:22.187Z,6.38
2022-10-11T22:24:07.389Z,7.13
2022-10-11T22:26:52.266Z,6.88
2022-10-11T22:29:37.531Z,5.80
2022-10-11T22:32:22.657Z,6.80
2022-10-11T22:35:08.136Z,7.60
2022-10-11T22:37:53.634Z,12.02
2022-10-11T22:40:40.059Z,12.70
2022-10-11T22:43:25.645Z,9.90
2022-10-11T22:46:10.892Z,7.65
2022-10-11T22:48:56.040Z,11.15
2022-10-11T22:51:41.331Z,11.68
2022-10-11T22:54:26.746Z,8.50
2022-10-11T22:57:11.908Z,9.85
2022-10-11T22:59:57.378Z,11.75
2022-10-11T23:02:42.323Z,10.82
2022-10-11T23:05:27.171Z,13.18
2022-10-11T23:08:12.605Z,17.90
2022-10-11T23:11:05.548Z,14.02
2022-10-11T23:13:50.655Z,11.23
2022-10-11T23:16:35.579Z,12.60
2022-10-11T23:19:20.679Z,10.35
2022-10-11T23:22:05.922Z,13.70
2022-10-11T23:24:50.755Z,15.68
2022-10-11T23:27:36.336Z,11.23
2022-10-11T23:30:21.399Z,15.05
2022-10-11T23:33:06.310Z,9.95
2022-10-11T23:35:51.673Z,11.75
2022-10-11T23:38:36.752Z,8.48
2022-10-11T23:41:23.102Z,11.45
2022-10-11T23:44:08.291Z,11.32
2022-10-11T23:46:53.355Z,11.57
2022-10-11T23:49:38.914Z,11.20
2022-10-11T23:52:23.743Z,11.07
2022-10-11T23:55:09.240Z,14.60
2022-10-11T23:57:54.390Z,14.77
